createdAt,value
2016-09-03T00:04:26.726Z,60.19
2016-09-03T00:09:23.241Z,59.71
2016-09-03T00:14:20.236Z,60.96
2016-09-03T00:19:16.814Z,61.16
2016-09-03T00:24:13.312Z,60.28
2016-09-03T00:29:09.916Z,61.32
2016-09-03T00:34:06.473Z,60.93
2016-09-03T00:39:03.005Z,61.13
2016-09-03T00:43:59.744Z,61.51
2016-09-03T00:48:56.316Z,61.44
2016-09-03T00:53:52.972Z,61.35
2016-09-03T00:58:49.574Z,61.32
2016-09-03T01:03:46.662Z,61.22
2016-09-03T01:08:44.796Z,61.44
2016-09-03T01:13:41.200Z,61.32
2016-09-03T01:18:37.902Z,61.35
2016-09-03T01:23:34.458Z,60.06
2016-09-03T01:28:30.973Z,60.93
2016-09-03T01:33:27.566Z,61.03
2016-09-03T01:38:24.181Z,61.32
2016-09-03T01:43:20.798Z,61.32
2016-09-03T01:48:17.351Z,61.13
2016-09-03T01:53:13.948Z,60.06
2016-09-03T01:58:10.756Z,61.32
2016-09-03T02:03:07.847Z,61.32
2016-09-03T02:08:05.054Z,61.35
2016-09-03T02:13:01.390Z,60.55
2016-09-03T02:17:57.941Z,60.26
2016-09-03T02:22:56.779Z,59.97
2016-09-03T02:27:52.815Z,59.78
2016-09-03T02:32:49.293Z,60.06
2016-09-03T02:37:46.000Z,59.48
2016-09-03T02:42:42.627Z,59.78
2016-09-03T02:47:39.104Z,59.36
2016-09-03T02:52:38.570Z,59.10
2016-09-03T02:57:34.587Z,59.20
2016-09-03T03:02:31.241Z,59.17
2016-09-03T03:07:27.835Z,58.69
2016-09-03T03:12:24.615Z,58.88
2016-09-03T03:17:21.088Z,58.40
2016-09-03T03:22:18.147Z,58.72
2016-09-03T03:27:14.711Z,58.69
2016-09-03T03:32:11.368Z,59.17
2016-09-03T03:37:08.234Z,58.49
2016-09-03T03:42:04.879Z,58.59
2016-09-03T03:47:01.349Z,58.69
2016-09-03T03:51:58.276Z,58.59
2016-09-03T03:56:54.975Z,58.49
2016-09-03T04:01:51.355Z,58.01
2016-09-03T04:06:48.223Z,58.01
2016-09-03T04:11:44.590Z,57.92
2016-09-03T04:16:41.141Z,57.82
2016-09-03T04:21:37.860Z,57.05
2016-09-03T04:26:34.313Z,56.76
2016-09-03T04:31:30.728Z,57.34
2016-09-03T04:36:27.386Z,57.05
2016-09-03T04:41:24.017Z,56.85
2016-09-03T04:46:20.876Z,57.62
2016-09-03T04:51:17.525Z,57.14
2016-09-03T04:56:13.920Z,56.57
2016-09-03T05:01:10.450Z,57.05
2016-09-03T05:06:07.297Z,56.85
2016-09-03T05:11:03.908Z,56.95
2016-09-03T05:16:00.426Z,57.24
2016-09-03T05:20:56.941Z,57.14
2016-09-03T05:25:53.621Z,56.95
2016-09-03T05:30:50.095Z,56.76
2016-09-03T05:35:48.184Z,57.82
2016-09-03T05:40:44.382Z,57.34
2016-09-03T05:45:41.134Z,56.98
2016-09-03T05:50:40.425Z,57.24
2016-09-03T05:55:36.193Z,56.76
2016-09-03T06:00:33.178Z,56.66
2016-09-03T06:05:30.154Z,57.37
2016-09-03T06:10:26.773Z,56.47
2016-09-03T06:15:23.438Z,57.24
2016-09-03T06:20:20.045Z,57.05
2016-09-03T06:25:16.736Z,56.95
2016-09-03T06:30:13.512Z,56.85
2016-09-03T06:35:10.115Z,57.24
2016-09-03T06:40:07.182Z,56.76
2016-09-03T06:45:04.288Z,56.37
2016-09-03T06:50:00.900Z,56.85
2016-09-03T06:54:57.691Z,57.27
2016-09-03T06:59:54.931Z,56.79
2016-09-03T07:04:51.471Z,56.30
2016-09-03T07:09:47.963Z,56.69
2016-09-03T07:14:44.535Z,56.72
2016-09-03T07:19:41.311Z,56.14
2016-09-03T07:24:39.523Z,55.46
2016-09-03T07:29:36.370Z,55.36
2016-09-03T07:34:33.304Z,54.50
2016-09-03T07:39:30.211Z,54.21
2016-09-03T07:44:27.189Z,53.75
2016-09-03T07:49:24.143Z,52.79
2016-09-03T07:54:21.260Z,52.14
2016-09-03T07:59:19.598Z,51.95
2016-09-03T08:04:16.253Z,50.69
2016-09-03T08:09:13.191Z,50.21
2016-09-03T08:14:13.115Z,49.85
2016-09-03T08:19:09.178Z,49.17
2016-09-03T08:24:05.790Z,50.43
2016-09-03T08:29:02.270Z,49.85
2016-09-03T08:33:58.996Z,50.91
2016-09-03T08:38:55.684Z,51.87
2016-09-03T08:43:52.583Z,52.45
2016-09-03T08:48:49.087Z,53.61
2016-09-03T08:53:45.623Z,54.84
2016-09-03T08:58:42.352Z,56.20
2016-09-03T09:03:38.906Z,59.38
2016-09-03T09:08:35.376Z,60.54
2016-09-03T09:13:31.927Z,61.70
2016-09-03T09:18:28.405Z,61.86
2016-09-03T09:23:24.925Z,61.31
2016-09-03T09:28:21.951Z,61.31
2016-09-03T09:33:18.627Z,61.99
2016-09-03T09:38:15.200Z,62.25
2016-09-03T09:43:12.697Z,62.63
2016-09-03T09:48:09.475Z,62.92
2016-09-03T09:53:06.207Z,62.73
2016-09-03T09:58:02.871Z,62.54
2016-09-03T10:03:02.376Z,62.92
2016-09-03T10:07:58.468Z,64.18
2016-09-03T10:12:55.043Z,63.50
2016-09-03T10:17:51.709Z,62.63
2016-09-03T10:22:48.485Z,63.89
2016-09-03T10:27:45.135Z,63.70
2016-09-03T10:32:41.916Z,63.92
2016-09-03T10:37:38.968Z,63.43
2016-09-03T10:42:35.835Z,63.43
2016-09-03T10:47:32.441Z,62.76
2016-09-03T10:52:31.592Z,63.43
2016-09-03T10:57:27.666Z,62.57
2016-09-03T11:02:24.438Z,62.95
2016-09-03T11:07:21.216Z,62.50
2016-09-03T11:12:20.247Z,62.21
2016-09-03T11:17:16.327Z,62.12
2016-09-03T11:22:13.031Z,62.79
2016-09-03T11:27:09.987Z,62.79
2016-09-03T11:32:08.350Z,62.40
2016-09-03T11:37:04.696Z,61.47
2016-09-03T11:42:01.381Z,62.34
2016-09-03T11:46:58.101Z,61.66
2016-09-03T11:51:54.781Z,61.76
2016-09-03T11:56:51.605Z,62.05
2016-09-03T12:01:48.358Z,62.44
2016-09-03T12:06:45.060Z,62.24
2016-09-03T12:11:41.808Z,62.05
2016-09-03T12:16:38.647Z,61.47
2016-09-03T12:21:36.899Z,61.57
2016-09-03T12:26:33.380Z,60.92
2016-09-03T12:31:30.648Z,60.63
2016-09-03T12:36:27.159Z,61.11
2016-09-03T12:41:25.453Z,60.24
2016-09-03T12:46:21.677Z,61.40
2016-09-03T12:51:18.270Z,61.27
2016-09-03T12:56:14.874Z,61.11
2016-09-03T13:01:11.605Z,61.27
2016-09-03T13:06:08.144Z,61.50
2016-09-03T13:11:05.137Z,62.24
2016-09-03T13:16:01.795Z,61.40
2016-09-03T13:20:58.406Z,61.30
2016-09-03T13:25:56.133Z,61.21
2016-09-03T13:30:52.659Z,61.60
2016-09-03T13:35:49.330Z,61.50
2016-09-03T13:40:46.492Z,61.21
2016-09-03T13:45:43.149Z,60.53
2016-09-03T13:50:39.799Z,60.63
2016-09-03T13:55:36.889Z,60.63
2016-09-03T14:00:33.468Z,60.34
2016-09-03T14:05:30.160Z,60.75
2016-09-03T14:10:26.723Z,59.98
2016-09-03T14:15:23.522Z,60.27
2016-09-03T14:20:20.173Z,61.53
2016-09-03T14:25:17.366Z,60.66
2016-09-03T14:30:16.444Z,60.66
2016-09-03T14:35:12.623Z,60.34
2016-09-03T14:40:09.663Z,60.47
2016-09-03T14:45:06.256Z,60.37
2016-09-03T14:50:02.905Z,59.89
2016-09-03T14:54:59.583Z,59.69
2016-09-03T14:59:57.210Z,60.08
2016-09-03T15:04:54.143Z,59.79
2016-09-03T15:09:50.671Z,59.79
2016-09-03T15:14:47.271Z,59.76
2016-09-03T15:19:43.916Z,59.95
2016-09-03T15:24:40.598Z,59.95
2016-09-03T15:29:37.500Z,59.66
2016-09-03T15:34:34.262Z,59.56
2016-09-03T15:39:31.004Z,59.28
2016-09-03T15:44:27.701Z,59.86
2016-09-03T15:49:25.574Z,59.95
2016-09-03T15:54:22.069Z,59.66
2016-09-03T15:59:18.820Z,59.08
2016-09-03T16:04:15.427Z,59.95
2016-09-03T16:09:11.852Z,60.05
2016-09-03T16:14:08.700Z,60.14
2016-09-03T16:19:05.842Z,59.63
2016-09-03T16:24:02.503Z,59.63
2016-09-03T16:28:58.959Z,60.11
2016-09-03T16:33:55.807Z,60.02
2016-09-03T16:38:53.060Z,59.63
2016-09-03T16:43:49.655Z,59.05
2016-09-03T16:48:46.164Z,59.25
2016-09-03T16:53:42.681Z,59.08
2016-09-03T16:58:39.471Z,58.89
2016-09-03T17:03:36.602Z,59.15
2016-09-03T17:08:35.892Z,59.05
2016-09-03T17:13:31.996Z,59.44
2016-09-03T17:18:28.652Z,59.92
2016-09-03T17:23:24.952Z,60.21
2016-09-03T17:33:21.697Z,62.40
2016-09-03T17:38:18.322Z,63.31
2016-09-03T17:43:15.149Z,62.73
2016-09-03T17:48:13.225Z,63.05
2016-09-03T17:53:09.568Z,63.53
2016-09-03T17:58:06.290Z,59.98
2016-09-03T18:03:03.063Z,58.92
2016-09-03T18:07:59.826Z,58.89
2016-09-03T18:12:56.416Z,58.89
2016-09-03T18:17:53.488Z,58.60
2016-09-03T18:22:50.095Z,59.05
2016-09-03T18:27:47.034Z,59.80
2016-09-03T18:32:43.576Z,60.38
2016-09-03T18:37:40.487Z,60.96
2016-09-03T18:42:36.895Z,61.34
2016-09-03T18:47:33.470Z,60.76
2016-09-03T18:52:29.973Z,61.41
2016-09-03T18:57:26.546Z,61.51
2016-09-03T19:02:23.111Z,61.51
2016-09-03T19:07:19.745Z,62.08
2016-09-03T19:12:16.365Z,61.51
2016-09-03T19:17:14.318Z,62.18
2016-09-03T19:22:10.649Z,61.99
2016-09-03T19:27:07.435Z,62.82
2016-09-03T19:32:05.263Z,61.96
2016-09-03T19:37:01.564Z,62.44
2016-09-03T19:41:58.185Z,62.44
2016-09-03T19:46:55.194Z,62.37
2016-09-03T19:51:52.078Z,62.15
2016-09-03T19:56:49.011Z,62.73
2016-09-03T20:01:45.725Z,62.54
2016-09-03T20:06:42.390Z,62.34
2016-09-03T20:11:40.435Z,62.44
2016-09-03T20:16:36.770Z,62.63
2016-09-03T20:21:33.884Z,62.92
2016-09-03T20:26:30.933Z,62.63
2016-09-03T20:31:27.511Z,62.54
2016-09-03T20:36:24.096Z,62.54
2016-09-03T20:41:20.554Z,62.89
2016-09-03T20:46:17.171Z,62.82
2016-09-03T20:51:14.211Z,62.63
2016-09-03T20:56:10.836Z,62.73
2016-09-03T21:01:07.560Z,62.15
2016-09-03T21:06:04.116Z,62.63
2016-09-03T21:11:01.111Z,62.82
2016-09-03T21:15:57.704Z,62.92
2016-09-03T21:20:54.285Z,62.73
2016-09-03T21:25:51.246Z,62.79
2016-09-03T21:30:47.947Z,63.37
2016-09-03T21:35:44.532Z,63.67
2016-09-03T21:40:44.022Z,63.47
2016-09-03T21:45:40.086Z,64.34
2016-09-03T21:50:36.757Z,63.85
2016-09-03T21:55:33.423Z,63.67
2016-09-03T22:00:30.220Z,63.95
2016-09-03T22:05:27.284Z,63.28
2016-09-03T22:10:23.859Z,63.57
2016-09-03T22:15:20.437Z,63.37
2016-09-03T22:20:16.889Z,64.34
2016-09-03T22:25:13.608Z,64.05
2016-09-03T22:30:10.367Z,64.15
2016-09-03T22:35:07.349Z,63.76
2016-09-03T22:40:04.127Z,64.24
2016-09-03T22:45:00.741Z,64.15
2016-09-03T22:49:58.866Z,64.15
2016-09-03T22:54:55.205Z,64.05
2016-09-03T22:59:52.019Z,64.72
2016-09-03T23:04:48.775Z,65.01
2016-09-03T23:09:45.283Z,64.72
2016-09-03T23:14:41.834Z,65.11
2016-09-03T23:19:38.504Z,65.30
2016-09-03T23:24:35.143Z,65.20
2016-09-03T23:29:31.617Z,65.20
2016-09-03T23:34:28.296Z,65.59
2016-09-03T23:39:25.192Z,65.59
2016-09-03T23:44:21.623Z,65.98
2016-09-03T23:49:18.194Z,65.98
2016-09-03T23:54:14.833Z,66.08
2016-09-03T23:59:11.426Z,66.56
